createdAt,value
2022-09-04T00:02:36.088Z,78.20
2022-09-04T00:05:02.989Z,78.40
2022-09-04T00:07:35.904Z,78.50
2022-09-04T00:10:22.868Z,78.50
2022-09-04T00:13:21.290Z,78.70
2022-09-04T00:16:01.819Z,78.70
2022-09-04T00:18:37.572Z,78.90
2022-09-04T00:21:26.248Z,78.90
2022-09-04T00:24:15.193Z,79.10
2022-09-04T00:27:21.378Z,79.30
2022-09-04T00:30:11.633Z,79.30
2022-09-04T00:32:45.713Z,79.50
2022-09-04T00:35:24.778Z,79.60
2022-09-04T00:38:22.017Z,79.70
2022-09-04T00:41:09.166Z,79.80
2022-09-04T00:43:44.898Z,80.00
2022-09-04T00:46:23.614Z,80.00
2022-09-04T00:48:56.541Z,80.20
2022-09-04T00:51:38.253Z,80.20
2022-09-04T00:54:13.429Z,80.30
2022-09-04T00:57:15.080Z,80.40
2022-09-04T00:59:47.789Z,80.40
2022-09-04T01:02:48.533Z,80.40
2022-09-04T01:05:45.589Z,80.40
2022-09-04T01:08:27.563Z,80.50
2022-09-04T01:11:07.798Z,80.50
2022-09-04T01:14:04.015Z,80.60
2022-09-04T01:16:56.578Z,80.70
2022-09-04T01:19:47.014Z,80.90
2022-09-04T01:22:25.803Z,80.90
2022-09-04T01:25:14.585Z,81.10
2022-09-04T01:27:50.817Z,81.10
2022-09-04T01:30:22.592Z,81.20
2022-09-04T01:33:18.667Z,81.30
2022-09-04T01:36:09.288Z,81.40
2022-09-04T01:38:47.583Z,81.40
2022-09-04T01:41:24.350Z,81.50
2022-09-04T01:43:51.819Z,81.60
2022-09-04T01:46:27.247Z,81.70
2022-09-04T01:48:59.914Z,81.70
2022-09-04T01:51:41.860Z,81.80
2022-09-04T01:54:47.297Z,81.90
2022-09-04T01:57:29.765Z,82.00
2022-09-04T02:00:05.754Z,82.00
2022-09-04T02:03:06.013Z,82.20
2022-09-04T02:05:50.890Z,82.20
2022-09-04T02:08:36.003Z,82.20
2022-09-04T02:11:08.837Z,82.20
2022-09-04T02:13:40.306Z,82.30
2022-09-04T02:16:21.064Z,82.40
2022-09-04T02:19:19.989Z,82.40
2022-09-04T02:22:07.104Z,82.40
2022-09-04T02:24:47.864Z,82.40
2022-09-04T02:28:09.091Z,82.50
2022-09-04T02:30:54.124Z,82.60
2022-09-04T02:33:33.395Z,82.50
2022-09-04T02:36:19.500Z,82.60
2022-09-04T02:39:28.909Z,82.60
2022-09-04T02:42:26.318Z,82.70
2022-09-04T02:45:02.283Z,82.80
2022-09-04T02:47:57.507Z,82.90
2022-09-04T02:50:51.095Z,82.90
2022-09-04T02:53:38.861Z,83.00
2022-09-04T02:56:39.357Z,83.10
2022-09-04T02:59:25.290Z,83.10
2022-09-04T03:01:59.507Z,83.10
2022-09-04T03:04:50.142Z,83.10
2022-09-04T03:07:33.164Z,83.20
2022-09-04T03:10:26.228Z,83.20
2022-09-04T03:13:10.926Z,83.20
2022-09-04T03:15:51.287Z,83.30
2022-09-04T03:18:26.531Z,83.50
2022-09-04T03:21:02.006Z,83.40
2022-09-04T03:23:46.035Z,83.50
2022-09-04T03:26:21.776Z,83.60
2022-09-04T03:28:59.775Z,83.60
2022-09-04T03:32:15.197Z,83.60
2022-09-04T03:34:55.106Z,83.70
2022-09-04T03:37:32.928Z,83.70
2022-09-04T03:40:23.185Z,83.70
2022-09-04T03:42:52.996Z,83.70
2022-09-04T03:45:38.036Z,83.70
2022-09-04T03:48:26.057Z,83.80
2022-09-04T03:51:13.126Z,83.80
2022-09-04T03:54:12.514Z,83.80
2022-09-04T03:57:13.307Z,83.90
2022-09-04T03:59:43.112Z,83.90
2022-09-04T04:02:36.359Z,84.00
2022-09-04T04:05:28.508Z,84.00
2022-09-04T04:08:27.494Z,84.10
2022-09-04T04:11:20.206Z,84.10
2022-09-04T04:13:52.770Z,84.10
2022-09-04T04:16:41.366Z,84.20
2022-09-04T04:19:47.099Z,84.20
2022-09-04T04:22:29.949Z,84.30
2022-09-04T04:27:52.977Z,84.30
2022-09-04T04:30:21.103Z,84.30
2022-09-04T04:32:50.635Z,84.30
2022-09-04T04:35:50.695Z,84.30
2022-09-04T04:38:32.345Z,84.30
2022-09-04T04:41:05.006Z,84.30
2022-09-04T04:43:52.281Z,84.40
2022-09-04T04:46:57.536Z,84.40
2022-09-04T04:49:50.584Z,84.50
2022-09-04T04:52:23.907Z,84.50
2022-09-04T04:55:06.345Z,84.50
2022-09-04T04:58:03.722Z,84.60
2022-09-04T05:01:05.135Z,84.50
2022-09-04T05:03:46.942Z,84.50
2022-09-04T05:06:21.220Z,84.50
2022-09-04T05:08:53.873Z,84.70
2022-09-04T05:11:48.384Z,84.50
2022-09-04T05:14:37.287Z,84.50
2022-09-04T05:17:09.944Z,84.40
2022-09-04T05:19:41.368Z,84.30
2022-09-04T05:22:27.577Z,84.20
2022-09-04T05:25:16.261Z,84.10
2022-09-04T05:27:59.871Z,84.00
2022-09-04T05:31:09.439Z,84.00
2022-09-04T05:33:55.185Z,83.90
2022-09-04T05:36:50.958Z,83.90
2022-09-04T05:39:20.781Z,83.70
2022-09-04T05:42:06.616Z,83.90
2022-09-04T05:45:01.428Z,83.80
2022-09-04T05:47:56.495Z,83.80
2022-09-04T05:50:48.406Z,83.70
2022-09-04T05:53:36.024Z,83.60
2022-09-04T05:56:17.866Z,83.50
2022-09-04T05:58:50.432Z,83.40
2022-09-04T06:01:36.187Z,83.30
2022-09-04T06:04:21.804Z,83.10
2022-09-04T06:07:07.004Z,83.10
2022-09-04T06:09:36.920Z,83.00
2022-09-04T06:12:26.770Z,83.00
2022-09-04T06:15:16.128Z,83.00
2022-09-04T06:18:00.617Z,82.90
2022-09-04T06:20:44.340Z,82.70
2022-09-04T06:23:41.965Z,82.50
2022-09-04T06:27:05.835Z,82.60
2022-09-04T06:29:53.191Z,82.20
2022-09-04T06:32:44.562Z,82.10
2022-09-04T06:35:34.592Z,82.00
2022-09-04T06:38:21.478Z,82.00
2022-09-04T06:41:16.304Z,81.60
2022-09-04T06:43:54.596Z,81.90
2022-09-04T06:46:24.201Z,81.60
2022-09-04T06:49:09.994Z,81.50
2022-09-04T06:51:55.835Z,81.70
2022-09-04T06:54:50.214Z,81.40
2022-09-04T06:57:52.616Z,81.40
2022-09-04T07:00:20.080Z,81.00
2022-09-04T07:03:10.509Z,80.30
2022-09-04T07:05:55.955Z,80.50
2022-09-04T07:08:44.695Z,80.50
2022-09-04T07:11:18.314Z,80.20
2022-09-04T07:14:17.170Z,79.80
2022-09-04T07:16:54.954Z,79.80
2022-09-04T07:19:34.026Z,79.60
2022-09-04T07:22:23.094Z,79.50
2022-09-04T07:24:53.536Z,78.90
2022-09-04T07:27:38.984Z,79.10
2022-09-04T07:30:08.765Z,78.90
2022-09-04T07:33:01.069Z,79.10
2022-09-04T07:35:30.717Z,79.10
2022-09-04T07:38:02.637Z,78.70
2022-09-04T07:41:26.865Z,78.20
2022-09-04T07:44:14.175Z,78.00
2022-09-04T07:46:41.630Z,78.30
2022-09-04T07:49:51.558Z,78.30
2022-09-04T07:52:39.670Z,78.50
2022-09-04T07:55:41.642Z,77.60
2022-09-04T07:58:11.433Z,77.60
2022-09-04T08:01:13.428Z,76.70
2022-09-04T08:04:16.075Z,76.50
2022-09-04T08:06:59.263Z,76.40
2022-09-04T08:09:40.700Z,76.60
2022-09-04T08:12:51.061Z,77.00
2022-09-04T08:15:21.744Z,75.70
2022-09-04T08:17:57.748Z,75.60
2022-09-04T08:20:36.664Z,76.10
2022-09-04T08:23:41.551Z,75.60
2022-09-04T08:26:17.157Z,75.50
2022-09-04T08:28:46.960Z,75.20
2022-09-04T08:31:42.258Z,74.70
2022-09-04T08:34:11.857Z,75.10
2022-09-04T08:36:47.766Z,74.80
2022-09-04T08:39:52.984Z,73.90
2022-09-04T08:42:27.589Z,73.40
2022-09-04T08:45:32.403Z,73.20
2022-09-04T08:48:36.172Z,72.80
2022-09-04T08:51:21.653Z,73.40
2022-09-04T08:54:31.284Z,72.40
2022-09-04T08:57:12.957Z,72.20
2022-09-04T09:00:01.301Z,72.00
2022-09-04T09:02:54.015Z,71.50
2022-09-04T09:05:39.328Z,72.50
2022-09-04T09:08:27.440Z,72.00
2022-09-04T09:11:26.889Z,71.70
2022-09-04T09:14:05.732Z,72.00
2022-09-04T09:17:06.918Z,70.70
2022-09-04T09:19:39.743Z,69.90
2022-09-04T09:22:10.509Z,70.50
2022-09-04T09:25:20.572Z,71.20
2022-09-04T09:28:09.316Z,70.80
2022-09-04T09:30:58.918Z,69.70
2022-09-04T09:33:40.960Z,70.90
2022-09-04T09:36:27.651Z,69.50
2022-09-04T09:39:06.750Z,69.90
2022-09-04T09:42:01.970Z,69.30
2022-09-04T09:44:34.782Z,69.10
2022-09-04T09:47:07.734Z,68.60
2022-09-04T09:49:43.554Z,69.00
2022-09-04T09:52:47.639Z,68.30
2022-09-04T09:55:36.857Z,68.10
2022-09-04T09:58:24.378Z,68.50
2022-09-04T10:01:25.604Z,68.40
2022-09-04T10:04:21.592Z,67.80
2022-09-04T10:07:18.040Z,67.80
2022-09-04T10:10:01.983Z,67.60
2022-09-04T10:13:05.589Z,67.80
2022-09-04T10:15:41.685Z,67.60
2022-09-04T10:18:43.638Z,67.70
2022-09-04T10:21:48.065Z,67.10
2022-09-04T10:24:53.596Z,67.10
2022-09-04T10:27:44.105Z,66.80
2022-09-04T10:30:20.360Z,66.40
2022-09-04T10:33:11.730Z,66.40
2022-09-04T10:35:57.447Z,66.30
2022-09-04T10:39:11.820Z,66.60
2022-09-04T10:42:31.912Z,66.20
2022-09-04T10:45:10.086Z,65.50
2022-09-04T10:47:46.791Z,65.50
2022-09-04T10:50:33.080Z,65.60
2022-09-04T10:53:21.230Z,65.40
2022-09-04T10:56:08.749Z,65.00
2022-09-04T10:58:50.772Z,65.00
2022-09-04T11:01:54.817Z,64.80
2022-09-04T11:04:59.981Z,64.50
2022-09-04T11:07:48.403Z,64.40
2022-09-04T11:10:21.335Z,64.20
2022-09-04T11:12:51.093Z,64.30
2022-09-04T11:15:50.356Z,64.00
2022-09-04T11:18:22.864Z,63.80
2022-09-04T11:21:03.024Z,64.00
2022-09-04T11:23:46.398Z,64.00
2022-09-04T11:26:33.484Z,64.10
2022-09-04T11:29:34.202Z,63.80
2022-09-04T11:32:15.939Z,63.70
2022-09-04T11:34:58.294Z,63.40
2022-09-04T11:37:39.137Z,63.40
2022-09-04T11:40:43.828Z,63.10
2022-09-04T11:43:30.420Z,63.20
2022-09-04T11:46:03.309Z,63.20
2022-09-04T11:48:54.579Z,63.30
2022-09-04T11:52:00.485Z,63.50
2022-09-04T11:54:36.481Z,63.70
2022-09-04T11:57:40.170Z,64.00
2022-09-04T12:00:18.145Z,63.60
2022-09-04T12:02:59.854Z,63.30
2022-09-04T12:05:40.390Z,63.10
2022-09-04T12:08:22.436Z,62.80
2022-09-04T12:11:10.934Z,63.20
2022-09-04T12:13:48.970Z,62.50
2022-09-04T12:16:53.468Z,64.40
2022-09-04T12:19:33.141Z,62.90
2022-09-04T12:22:31.113Z,64.00
2022-09-04T12:25:22.256Z,62.50
2022-09-04T12:28:26.777Z,62.90
2022-09-04T12:31:11.402Z,63.00
2022-09-04T12:33:50.211Z,61.90
2022-09-04T12:36:44.325Z,62.90
2022-09-04T12:39:35.947Z,63.50
2022-09-04T12:42:39.676Z,63.60
2022-09-04T12:45:42.599Z,62.30
2022-09-04T12:48:27.971Z,61.70
2022-09-04T12:51:05.483Z,61.80
2022-09-04T12:53:54.054Z,62.70
2022-09-04T12:56:45.892Z,62.30
2022-09-04T12:59:38.387Z,61.90
2022-09-04T13:02:05.281Z,62.30
2022-09-04T13:05:05.443Z,62.40
2022-09-04T13:07:50.896Z,61.90
2022-09-04T13:10:35.883Z,61.90
2022-09-04T13:13:33.966Z,61.60
2022-09-04T13:16:17.295Z,61.40
2022-09-04T13:19:00.252Z,61.10
2022-09-04T13:21:32.885Z,61.30
2022-09-04T13:24:10.044Z,61.60
2022-09-04T13:27:10.066Z,61.30
2022-09-04T13:30:03.659Z,61.20
2022-09-04T13:32:56.325Z,61.50
2022-09-04T13:36:01.265Z,61.00
2022-09-04T13:39:06.763Z,60.50
2022-09-04T13:42:01.231Z,60.80
2022-09-04T13:44:44.125Z,61.20
2022-09-04T13:47:17.217Z,61.30
2022-09-04T13:50:08.722Z,61.20
2022-09-04T13:52:52.612Z,61.30
2022-09-04T13:55:25.464Z,61.30
2022-09-04T13:58:13.167Z,61.30
2022-09-04T14:00:46.070Z,61.30
2022-09-04T14:03:44.294Z,60.90
2022-09-04T14:06:16.636Z,61.40
2022-09-04T14:08:46.278Z,61.00
2022-09-04T14:11:58.396Z,61.00
2022-09-04T14:15:15.782Z,60.80
2022-09-04T14:18:05.960Z,60.50
2022-09-04T14:20:42.167Z,60.60
2022-09-04T14:23:24.321Z,61.10
2022-09-04T14:26:19.754Z,60.80
2022-09-04T14:29:09.208Z,60.60
2022-09-04T14:31:49.415Z,60.70
2022-09-04T14:34:23.105Z,60.40
2022-09-04T14:37:27.318Z,60.50
2022-09-04T14:40:04.787Z,60.50
2022-09-04T14:42:50.385Z,60.70
2022-09-04T14:45:24.571Z,60.90
2022-09-04T14:47:57.320Z,60.80
2022-09-04T14:50:30.346Z,60.80
2022-09-04T14:52:59.246Z,61.30
2022-09-04T14:55:27.813Z,60.90
2022-09-04T14:58:01.586Z,60.90
2022-09-04T15:00:29.908Z,60.50
2022-09-04T15:03:05.549Z,60.30
2022-09-04T15:05:53.460Z,61.10
2022-09-04T15:08:50.715Z,60.80
2022-09-04T15:11:34.713Z,61.00
2022-09-04T15:14:28.497Z,61.00
2022-09-04T15:17:08.175Z,60.60
2022-09-04T15:19:49.880Z,60.70
2022-09-04T15:22:45.848Z,60.40
2022-09-04T15:25:58.148Z,61.10
2022-09-04T15:28:39.147Z,60.90
2022-09-04T15:31:28.558Z,60.90
2022-09-04T15:34:02.711Z,60.70
2022-09-04T15:36:30.417Z,60.50
2022-09-04T15:41:50.073Z,60.60
2022-09-04T15:44:29.916Z,60.30
2022-09-04T15:47:17.055Z,60.40
2022-09-04T15:49:47.602Z,60.50
2022-09-04T15:52:29.779Z,60.50
2022-09-04T15:57:56.092Z,60.30
2022-09-04T16:00:27.279Z,59.70
2022-09-04T16:02:59.880Z,60.10
2022-09-04T16:05:35.149Z,60.10
2022-09-04T16:08:26.295Z,59.60
2022-09-04T16:11:06.598Z,60.00
2022-09-04T16:14:04.080Z,59.20
2022-09-04T16:16:54.252Z,58.80
2022-09-04T16:19:36.115Z,60.00
2022-09-04T16:22:17.955Z,59.80
2022-09-04T16:24:53.962Z,59.50
2022-09-04T16:27:24.372Z,59.10
2022-09-04T16:29:55.358Z,59.10
2022-09-04T16:32:25.696Z,57.90
2022-09-04T16:35:02.108Z,58.00
2022-09-04T16:37:34.990Z,58.80
2022-09-04T16:40:21.220Z,58.50
2022-09-04T16:42:50.976Z,59.10
2022-09-04T16:45:27.161Z,59.20
2022-09-04T16:47:56.613Z,60.00
2022-09-04T16:50:37.717Z,59.80
2022-09-04T16:53:28.920Z,59.90
2022-09-04T16:56:12.872Z,60.10
2022-09-04T16:59:15.004Z,60.20
2022-09-04T17:02:10.571Z,60.50
2022-09-04T17:04:44.906Z,60.80
2022-09-04T17:07:18.409Z,60.90
2022-09-04T17:10:01.783Z,61.10
2022-09-04T17:12:40.626Z,61.20
2022-09-04T17:15:23.383Z,61.40
2022-09-04T17:17:53.830Z,61.60
2022-09-04T17:22:09.845Z,61.70
2022-09-04T17:29:00.943Z,61.80
2022-09-04T17:29:08.638Z,62.00
2022-09-04T17:29:48.619Z,62.30
2022-09-04T17:33:55.337Z,62.40
2022-09-04T17:40:41.900Z,62.70
2022-09-04T17:40:50.438Z,62.70
2022-09-04T17:41:53.042Z,62.90
2022-09-04T17:44:46.107Z,63.10
2022-09-04T17:47:31.882Z,63.20
2022-09-04T17:49:59.255Z,63.30
2022-09-04T17:52:53.447Z,63.50
2022-09-04T17:55:22.747Z,63.80
2022-09-04T17:58:11.681Z,63.90
2022-09-04T18:01:23.988Z,64.00
2022-09-04T18:04:21.788Z,64.30
2022-09-04T18:07:30.031Z,64.60
2022-09-04T18:10:26.323Z,64.80
2022-09-04T18:13:36.601Z,65.10
2022-09-04T18:16:27.199Z,65.50
2022-09-04T18:19:17.447Z,66.00
2022-09-04T18:21:52.584Z,66.30
2022-09-04T18:24:50.788Z,66.80
2022-09-04T18:27:36.037Z,67.30
2022-09-04T18:37:05.941Z,67.90
2022-09-04T18:37:09.063Z,68.50
2022-09-04T18:37:18.212Z,69.00
2022-09-04T18:39:08.504Z,69.80
2022-09-04T18:50:21.178Z,70.50
2022-09-04T18:50:37.437Z,71.80
2022-09-04T18:50:50.180Z,71.00
2022-09-04T18:53:44.569Z,72.50
2022-09-04T18:56:20.639Z,72.90
2022-09-04T18:59:00.247Z,73.20
2022-09-04T19:01:50.623Z,73.50
2022-09-04T19:04:40.061Z,73.80
2022-09-04T19:07:16.885Z,74.10
2022-09-04T19:10:27.830Z,74.40
2022-09-04T19:13:20.414Z,74.50
2022-09-04T19:16:19.901Z,74.60
2022-09-04T19:19:17.731Z,74.80
2022-09-04T19:22:09.184Z,75.00
2022-09-04T19:25:06.896Z,75.10
2022-09-04T19:27:50.846Z,75.20
2022-09-04T19:30:45.129Z,75.20
2022-09-04T19:33:18.555Z,75.30
2022-09-04T19:36:08.349Z,75.10
2022-09-04T19:45:56.403Z,75.10
2022-09-04T19:46:00.061Z,74.90
2022-09-04T19:46:05.992Z,74.80
2022-09-04T19:48:04.648Z,74.80
2022-09-04T19:53:20.387Z,74.60
2022-09-04T19:53:41.157Z,74.60
2022-09-04T19:56:20.324Z,74.50
2022-09-04T19:58:53.645Z,74.60
2022-09-04T20:01:27.746Z,74.70
2022-09-04T20:04:04.297Z,75.00
2022-09-04T20:06:46.850Z,74.90
2022-09-04T20:09:42.728Z,75.00
2022-09-04T20:12:19.511Z,75.10
2022-09-04T20:15:12.107Z,75.30
2022-09-04T20:17:54.349Z,75.40
2022-09-04T20:20:28.768Z,75.40
2022-09-04T20:23:34.023Z,75.40
2022-09-04T20:26:09.185Z,75.20
2022-09-04T20:28:50.136Z,75.10
2022-09-04T20:31:45.303Z,74.90
2022-09-04T20:34:36.452Z,74.80
2022-09-04T20:37:28.481Z,74.40
2022-09-04T20:40:30.171Z,74.30
2022-09-04T20:43:03.343Z,74.10
2022-09-04T20:50:16.267Z,73.80
2022-09-04T20:52:48.682Z,73.80
2022-09-04T20:53:06.219Z,73.80
2022-09-04T20:55:22.637Z,73.80
2022-09-04T21:01:05.470Z,73.60
2022-09-04T21:03:09.147Z,73.40
2022-09-04T21:04:43.377Z,73.50
2022-09-04T21:07:37.746Z,73.50
2022-09-04T21:10:19.973Z,73.70
2022-09-04T21:13:13.576Z,73.70
2022-09-04T21:15:48.387Z,73.40
2022-09-04T21:18:29.407Z,73.40
2022-09-04T21:21:11.368Z,73.50
2022-09-04T21:23:56.497Z,73.50
2022-09-04T21:26:52.216Z,73.40
2022-09-04T21:29:45.602Z,73.20
2022-09-04T21:32:52.348Z,73.10
2022-09-04T21:35:29.486Z,73.40
2022-09-04T21:38:02.321Z,73.70
2022-09-04T21:41:02.832Z,73.30
2022-09-04T21:43:38.583Z,73.50
2022-09-04T21:46:19.002Z,73.50
2022-09-04T21:49:00.016Z,73.40
2022-09-04T21:51:55.966Z,73.60
2022-09-04T21:59:13.605Z,73.50
2022-09-04T22:02:26.173Z,73.60
2022-09-04T22:02:38.446Z,74.00
2022-09-04T22:04:05.254Z,74.10
2022-09-04T22:06:57.023Z,74.00
2022-09-04T22:13:30.259Z,74.10
2022-09-04T22:13:42.963Z,74.10
2022-09-04T22:16:05.379Z,74.20
2022-09-04T22:18:57.330Z,74.30
2022-09-04T22:21:42.479Z,74.10
2022-09-04T22:24:21.176Z,74.50
2022-09-04T22:27:30.100Z,74.60
2022-09-04T22:30:10.080Z,74.50
2022-09-04T22:33:07.305Z,74.60
2022-09-04T22:36:21.995Z,74.80
2022-09-04T22:39:15.216Z,74.90
2022-09-04T22:42:23.590Z,75.00
2022-09-04T22:45:21.225Z,75.20
2022-09-04T22:48:06.589Z,75.40
2022-09-04T22:50:50.265Z,75.50
2022-09-04T22:53:41.316Z,75.50
2022-09-04T22:56:24.607Z,75.60
2022-09-04T22:59:35.259Z,75.70
2022-09-04T23:02:40.723Z,75.90
2022-09-04T23:06:35.517Z,76.30
2022-09-04T23:13:43.580Z,76.30
2022-09-04T23:13:49.426Z,76.40
2022-09-04T23:15:35.553Z,76.70
2022-09-04T23:20:25.167Z,76.90
2022-09-04T23:26:41.497Z,76.90
2022-09-04T23:26:41.904Z,76.90
2022-09-04T23:27:40.676Z,77.00
2022-09-04T23:30:26.410Z,77.20
2022-09-04T23:33:27.259Z,77.20
2022-09-04T23:36:02.927Z,77.10
2022-09-04T23:38:55.910Z,77.10
2022-09-04T23:41:52.828Z,76.90
2022-09-04T23:44:25.431Z,76.80
2022-09-04T23:47:46.992Z,76.50
2022-09-04T23:50:27.578Z,76.30
2022-09-04T23:53:12.031Z,76.00
2022-09-04T23:56:15.911Z,75.90
2022-09-04T23:59:27.053Z,75.80
